sensor_id;sensor_type;location;lat;lon;timestamp;P1;durP1;ratioP1;P2;durP2;ratioP2
52740;SDS011;38634;52.138;9.912;2022-10-16T00:02:29;19.10;;;3.38;;
52740;SDS011;38634;52.138;9.912;2022-10-16T00:05:14;15.20;;;3.40;;
52740;SDS011;38634;52.138;9.912;2022-10-16T00:07:58;16.73;;;3.67;;
52740;SDS011;38634;52.138;9.912;2022-10-16T00:10:46;13.48;;;3.10;;
52740;SDS011;38634;52.138;9.912;2022-10-16T00:13:31;14.52;;;3.20;;
52740;SDS011;38634;52.138;9.912;2022-10-16T00:16:16;12.40;;;2.78;;
52740;SDS011;38634;52.138;9.912;2022-10-16T00:19:02;16.88;;;3.53;;
52740;SDS011;38634;52.138;9.912;2022-10-16T00:21:47;17.50;;;3.33;;
52740;SDS011;38634;52.138;9.912;2022-10-16T00:24:33;20.42;;;3.80;;
52740;SDS011;38634;52.138;9.912;2022-10-16T00:27:17;10.38;;;3.10;;
52740;SDS011;38634;52.138;9.912;2022-10-16T00:30:03;13.82;;;3.70;;
52740;SDS011;38634;52.138;9.912;2022-10-16T00:32:49;12.43;;;3.55;;
52740;SDS011;38634;52.138;9.912;2022-10-16T00:35:33;11.45;;;2.95;;
52740;SDS011;38634;52.138;9.912;2022-10-16T00:38:19;19.35;;;4.00;;
52740;SDS011;38634;52.138;9.912;2022-10-16T00:41:05;18.45;;;4.25;;
52740;SDS011;38634;52.138;9.912;2022-10-16T00:43:55;20.05;;;4.00;;
52740;SDS011;38634;52.138;9.912;2022-10-16T00:46:41;17.40;;;4.20;;
52740;SDS011;38634;52.138;9.912;2022-10-16T00:49:27;23.25;;;4.53;;
52740;SDS011;38634;52.138;9.912;2022-10-16T00:52:11;21.63;;;4.10;;
52740;SDS011;38634;52.138;9.912;2022-10-16T00:54:57;20.95;;;3.95;;
52740;SDS011;38634;52.138;9.912;2022-10-16T00:57:43;21.02;;;4.05;;
52740;SDS011;38634;52.138;9.912;2022-10-16T01:00:28;13.80;;;3.50;;
52740;SDS011;38634;52.138;9.912;2022-10-16T01:03:27;14.23;;;3.35;;
52740;SDS011;38634;52.138;9.912;2022-10-16T01:13:48;18.05;;;3.70;;
52740;SDS011;38634;52.138;9.912;2022-10-16T01:16:41;14.57;;;4.20;;
52740;SDS011;38634;52.138;9.912;2022-10-16T01:28:45;24.02;;;4.03;;
52740;SDS011;38634;52.138;9.912;2022-10-16T01:31:48;21.95;;;4.50;;
52740;SDS011;38634;52.138;9.912;2022-10-16T01:34:39;23.30;;;4.32;;
52740;SDS011;38634;52.138;9.912;2022-10-16T01:40:50;19.95;;;4.03;;
52740;SDS011;38634;52.138;9.912;2022-10-16T01:44:25;16.65;;;3.90;;
52740;SDS011;38634;52.138;9.912;2022-10-16T01:46:52;18.92;;;4.28;;
52740;SDS011;38634;52.138;9.912;2022-10-16T01:49:38;16.70;;;3.42;;
52740;SDS011;38634;52.138;9.912;2022-10-16T01:52:25;20.08;;;3.85;;
52740;SDS011;38634;52.138;9.912;2022-10-16T01:55:11;21.33;;;4.00;;
52740;SDS011;38634;52.138;9.912;2022-10-16T01:58:01;11.90;;;3.78;;
52740;SDS011;38634;52.138;9.912;2022-10-16T02:00:46;9.95;;;3.25;;
52740;SDS011;38634;52.138;9.912;2022-10-16T11:26:58;14.95;;;2.78;;
52740;SDS011;38634;52.138;9.912;2022-10-16T11:29:48;12.93;;;2.70;;
52740;SDS011;38634;52.138;9.912;2022-10-16T11:39:28;14.10;;;2.30;;
52740;SDS011;38634;52.138;9.912;2022-10-16T11:42:36;13.10;;;2.35;;
52740;SDS011;38634;52.138;9.912;2022-10-16T11:45:27;12.55;;;2.33;;
52740;SDS011;38634;52.138;9.912;2022-10-16T11:49:03;16.85;;;2.92;;
52740;SDS011;38634;52.138;9.912;2022-10-16T11:52:03;12.27;;;2.42;;
52740;SDS011;38634;52.138;9.912;2022-10-16T11:55:16;12.57;;;2.55;;
52740;SDS011;38634;52.138;9.912;2022-10-16T11:58:06;10.85;;;2.25;;
52740;SDS011;38634;52.138;9.912;2022-10-16T12:01:22;17.33;;;4.32;;
52740;SDS011;38634;52.138;9.912;2022-10-16T12:04:23;12.60;;;2.15;;
52740;SDS011;38634;52.138;9.912;2022-10-16T12:07:14;15.25;;;2.67;;
52740;SDS011;38634;52.138;9.912;2022-10-16T12:10:19;13.18;;;2.53;;
52740;SDS011;38634;52.138;9.912;2022-10-16T12:19:15;11.23;;;2.25;;
52740;SDS011;38634;52.138;9.912;2022-10-16T12:22:03;13.93;;;2.45;;
52740;SDS011;38634;52.138;9.912;2022-10-16T12:24:50;13.30;;;2.85;;
52740;SDS011;38634;52.138;9.912;2022-10-16T12:27:35;12.63;;;2.35;;
52740;SDS011;38634;52.138;9.912;2022-10-16T12:30:22;17.38;;;2.70;;
52740;SDS011;38634;52.138;9.912;2022-10-16T12:33:25;16.05;;;2.53;;
52740;SDS011;38634;52.138;9.912;2022-10-16T12:36:30;14.60;;;2.40;;
52740;SDS011;38634;52.138;9.912;2022-10-16T12:39:20;15.63;;;2.50;;
52740;SDS011;38634;52.138;9.912;2022-10-16T12:45:32;17.13;;;2.88;;
52740;SDS011;38634;52.138;9.912;2022-10-16T12:48:18;16.65;;;2.60;;
52740;SDS011;38634;52.138;9.912;2022-10-16T12:51:19;16.05;;;2.83;;
52740;SDS011;38634;52.138;9.912;2022-10-16T12:54:35;13.25;;;2.40;;
52740;SDS011;38634;52.138;9.912;2022-10-16T13:03:48;40.30;;;6.53;;
52740;SDS011;38634;52.138;9.912;2022-10-16T13:07:19;55.88;;;8.32;;
52740;SDS011;38634;52.138;9.912;2022-10-16T13:10:21;27.10;;;4.43;;
52740;SDS011;38634;52.138;9.912;2022-10-16T13:14:22;35.17;;;6.35;;
52740;SDS011;38634;52.138;9.912;2022-10-16T13:22:59;36.95;;;6.57;;
52740;SDS011;38634;52.138;9.912;2022-10-16T13:26:22;59.10;;;9.00;;
52740;SDS011;38634;52.138;9.912;2022-10-16T13:36:18;34.60;;;6.55;;
52740;SDS011;38634;52.138;9.912;2022-10-16T13:44:58;55.65;;;9.13;;
52740;SDS011;38634;52.138;9.912;2022-10-16T13:47:42;31.15;;;5.53;;
52740;SDS011;38634;52.138;9.912;2022-10-16T13:50:27;25.25;;;4.80;;
52740;SDS011;38634;52.138;9.912;2022-10-16T13:53:13;39.60;;;7.32;;
52740;SDS011;38634;52.138;9.912;2022-10-16T13:55:58;58.65;;;9.90;;
52740;SDS011;38634;52.138;9.912;2022-10-16T13:58:44;55.33;;;8.95;;
52740;SDS011;38634;52.138;9.912;2022-10-16T14:01:41;33.00;;;7.22;;
52740;SDS011;38634;52.138;9.912;2022-10-16T14:04:29;70.30;;;10.13;;
52740;SDS011;38634;52.138;9.912;2022-10-16T14:07:34;38.95;;;6.00;;
52740;SDS011;38634;52.138;9.912;2022-10-16T14:10:27;54.47;;;8.70;;
52740;SDS011;38634;52.138;9.912;2022-10-16T14:13:15;50.92;;;8.27;;
52740;SDS011;38634;52.138;9.912;2022-10-16T14:16:05;60.08;;;10.18;;
52740;SDS011;38634;52.138;9.912;2022-10-16T14:18:57;20.98;;;4.65;;
52740;SDS011;38634;52.138;9.912;2022-10-16T14:21:48;61.80;;;10.40;;
52740;SDS011;38634;52.138;9.912;2022-10-16T14:24:34;37.20;;;6.95;;
52740;SDS011;38634;52.138;9.912;2022-10-16T14:30:18;55.38;;;9.30;;
52740;SDS011;38634;52.138;9.912;2022-10-16T14:33:18;23.48;;;5.03;;
52740;SDS011;38634;52.138;9.912;2022-10-16T14:36:19;23.67;;;4.80;;
52740;SDS011;38634;52.138;9.912;2022-10-16T14:39:25;29.08;;;5.95;;
52740;SDS011;38634;52.138;9.912;2022-10-16T14:42:16;42.08;;;9.00;;
52740;SDS011;38634;52.138;9.912;2022-10-16T14:45:07;59.55;;;11.10;;
52740;SDS011;38634;52.138;9.912;2022-10-16T14:47:54;29.70;;;6.68;;
52740;SDS011;38634;52.138;9.912;2022-10-16T14:50:43;33.25;;;6.20;;
52740;SDS011;38634;52.138;9.912;2022-10-16T14:53:34;44.88;;;8.15;;
52740;SDS011;38634;52.138;9.912;2022-10-16T14:56:22;24.88;;;5.57;;
52740;SDS011;38634;52.138;9.912;2022-10-16T14:59:16;52.85;;;9.23;;
52740;SDS011;38634;52.138;9.912;2022-10-16T15:08:08;62.70;;;10.98;;
52740;SDS011;38634;52.138;9.912;2022-10-16T15:10:53;43.03;;;7.38;;
52740;SDS011;38634;52.138;9.912;2022-10-16T15:13:38;63.80;;;16.40;;
52740;SDS011;38634;52.138;9.912;2022-10-16T15:16:23;32.60;;;6.38;;
52740;SDS011;38634;52.138;9.912;2022-10-16T15:19:08;72.07;;;12.05;;
52740;SDS011;38634;52.138;9.912;2022-10-16T15:21:52;56.55;;;9.13;;
52740;SDS011;38634;52.138;9.912;2022-10-16T15:24:37;50.33;;;8.98;;
52740;SDS011;38634;52.138;9.912;2022-10-16T15:27:22;32.17;;;6.40;;
52740;SDS011;38634;52.138;9.912;2022-10-16T15:30:06;50.00;;;9.52;;
52740;SDS011;38634;52.138;9.912;2022-10-16T15:32:51;57.47;;;9.80;;
52740;SDS011;38634;52.138;9.912;2022-10-16T15:35:36;80.28;;;13.73;;
52740;SDS011;38634;52.138;9.912;2022-10-16T15:38:21;37.38;;;8.05;;
52740;SDS011;38634;52.138;9.912;2022-10-16T15:41:06;35.15;;;8.57;;
52740;SDS011;38634;52.138;9.912;2022-10-16T15:43:51;62.40;;;11.00;;
52740;SDS011;38634;52.138;9.912;2022-10-16T15:46:35;70.65;;;11.65;;
52740;SDS011;38634;52.138;9.912;2022-10-16T15:49:20;48.85;;;9.15;;
52740;SDS011;38634;52.138;9.912;2022-10-16T15:52:05;29.20;;;6.47;;
52740;SDS011;38634;52.138;9.912;2022-10-16T15:54:50;39.22;;;7.72;;
52740;SDS011;38634;52.138;9.912;2022-10-16T15:57:35;58.47;;;9.68;;
52740;SDS011;38634;52.138;9.912;2022-10-16T16:00:22;49.00;;;9.80;;
52740;SDS011;38634;52.138;9.912;2022-10-16T16:03:09;34.08;;;7.50;;
52740;SDS011;38634;52.138;9.912;2022-10-16T16:05:54;47.13;;;8.98;;
52740;SDS011;38634;52.138;9.912;2022-10-16T16:08:39;58.80;;;10.52;;
52740;SDS011;38634;52.138;9.912;2022-10-16T16:11:24;73.00;;;14.45;;
52740;SDS011;38634;52.138;9.912;2022-10-16T16:14:12;31.60;;;7.22;;
52740;SDS011;38634;52.138;9.912;2022-10-16T16:16:57;41.63;;;7.18;;
52740;SDS011;38634;52.138;9.912;2022-10-16T16:19:42;61.83;;;10.40;;
52740;SDS011;38634;52.138;9.912;2022-10-16T16:22:27;65.47;;;10.52;;
52740;SDS011;38634;52.138;9.912;2022-10-16T16:25:11;26.70;;;5.43;;
52740;SDS011;38634;52.138;9.912;2022-10-16T16:27:56;30.35;;;5.68;;
52740;SDS011;38634;52.138;9.912;2022-10-16T16:30:41;44.55;;;8.25;;
52740;SDS011;38634;52.138;9.912;2022-10-16T16:33:26;61.53;;;9.82;;
52740;SDS011;38634;52.138;9.912;2022-10-16T16:36:10;56.58;;;9.60;;
52740;SDS011;38634;52.138;9.912;2022-10-16T16:38:55;23.33;;;4.75;;
52740;SDS011;38634;52.138;9.912;2022-10-16T16:41:40;27.02;;;5.35;;
52740;SDS011;38634;52.138;9.912;2022-10-16T16:44:25;60.53;;;9.75;;
52740;SDS011;38634;52.138;9.912;2022-10-16T16:47:10;63.33;;;10.20;;
52740;SDS011;38634;52.138;9.912;2022-10-16T16:49:54;32.90;;;5.82;;
52740;SDS011;38634;52.138;9.912;2022-10-16T16:52:39;31.90;;;6.03;;
52740;SDS011;38634;52.138;9.912;2022-10-16T16:55:23;44.95;;;7.80;;
52740;SDS011;38634;52.138;9.912;2022-10-16T16:58:08;72.60;;;11.32;;
52740;SDS011;38634;52.138;9.912;2022-10-16T17:00:52;60.50;;;9.10;;
52740;SDS011;38634;52.138;9.912;2022-10-16T17:03:37;32.40;;;5.72;;
52740;SDS011;38634;52.138;9.912;2022-10-16T17:06:23;30.52;;;5.70;;
52740;SDS011;38634;52.138;9.912;2022-10-16T17:09:10;45.97;;;7.57;;
52740;SDS011;38634;52.138;9.912;2022-10-16T17:11:58;50.50;;;8.73;;
52740;SDS011;38634;52.138;9.912;2022-10-16T17:14:43;28.38;;;5.07;;
52740;SDS011;38634;52.138;9.912;2022-10-16T17:17:28;31.35;;;6.05;;
52740;SDS011;38634;52.138;9.912;2022-10-16T17:20:13;13.45;;;3.30;;
52740;SDS011;38634;52.138;9.912;2022-10-16T17:22:57;9.27;;;2.80;;
52740;SDS011;38634;52.138;9.912;2022-10-16T17:25:42;16.85;;;3.10;;
52740;SDS011;38634;52.138;9.912;2022-10-16T17:28:26;22.83;;;3.95;;
52740;SDS011;38634;52.138;9.912;2022-10-16T17:33:58;14.93;;;2.95;;
52740;SDS011;38634;52.138;9.912;2022-10-16T17:36:44;14.57;;;2.65;;
52740;SDS011;38634;52.138;9.912;2022-10-16T17:39:29;15.32;;;3.17;;
52740;SDS011;38634;52.138;9.912;2022-10-16T17:42:14;9.73;;;2.70;;
52740;SDS011;38634;52.138;9.912;2022-10-16T17:44:59;15.02;;;3.00;;
52740;SDS011;38634;52.138;9.912;2022-10-16T17:47:43;13.90;;;3.05;;
52740;SDS011;38634;52.138;9.912;2022-10-16T17:50:28;13.32;;;2.72;;
52740;SDS011;38634;52.138;9.912;2022-10-16T17:53:12;10.90;;;2.40;;
52740;SDS011;38634;52.138;9.912;2022-10-16T17:56:00;13.80;;;3.33;;
52740;SDS011;38634;52.138;9.912;2022-10-16T17:58:50;11.95;;;3.10;;
52740;SDS011;38634;52.138;9.912;2022-10-16T18:01:42;14.00;;;2.67;;
52740;SDS011;38634;52.138;9.912;2022-10-16T18:04:28;16.73;;;3.05;;
52740;SDS011;38634;52.138;9.912;2022-10-16T18:07:13;8.63;;;1.88;;
52740;SDS011;38634;52.138;9.912;2022-10-16T18:10:00;20.48;;;4.13;;
52740;SDS011;38634;52.138;9.912;2022-10-16T18:12:52;11.57;;;2.80;;
52740;SDS011;38634;52.138;9.912;2022-10-16T18:15:36;11.57;;;2.97;;
52740;SDS011;38634;52.138;9.912;2022-10-16T18:18:21;11.98;;;2.95;;
52740;SDS011;38634;52.138;9.912;2022-10-16T18:21:06;13.52;;;3.55;;
52740;SDS011;38634;52.138;9.912;2022-10-16T18:23:57;11.15;;;2.60;;
52740;SDS011;38634;52.138;9.912;2022-10-16T18:26:42;10.00;;;2.80;;
52740;SDS011;38634;52.138;9.912;2022-10-16T18:29:27;13.10;;;2.80;;
52740;SDS011;38634;52.138;9.912;2022-10-16T18:32:14;8.32;;;2.42;;
52740;SDS011;38634;52.138;9.912;2022-10-16T18:34:59;9.63;;;3.10;;
52740;SDS011;38634;52.138;9.912;2022-10-16T18:37:43;8.48;;;2.45;;
52740;SDS011;38634;52.138;9.912;2022-10-16T18:40:28;10.60;;;2.70;;
52740;SDS011;38634;52.138;9.912;2022-10-16T18:43:13;4.55;;;2.00;;
52740;SDS011;38634;52.138;9.912;2022-10-16T18:46:02;15.18;;;3.10;;
52740;SDS011;38634;52.138;9.912;2022-10-16T18:48:48;15.52;;;3.03;;
52740;SDS011;38634;52.138;9.912;2022-10-16T18:51:35;18.67;;;4.38;;
52740;SDS011;38634;52.138;9.912;2022-10-16T18:54:23;13.80;;;2.83;;
52740;SDS011;38634;52.138;9.912;2022-10-16T18:57:08;13.80;;;2.75;;
52740;SDS011;38634;52.138;9.912;2022-10-16T18:59:52;13.88;;;2.95;;
52740;SDS011;38634;52.138;9.912;2022-10-16T19:02:37;13.68;;;3.10;;
52740;SDS011;38634;52.138;9.912;2022-10-16T19:05:22;12.20;;;2.92;;
52740;SDS011;38634;52.138;9.912;2022-10-16T19:08:06;14.10;;;3.08;;
52740;SDS011;38634;52.138;9.912;2022-10-16T19:10:51;21.30;;;4.47;;
52740;SDS011;38634;52.138;9.912;2022-10-16T19:13:36;9.05;;;2.40;;
52740;SDS011;38634;52.138;9.912;2022-10-16T19:16:25;11.48;;;2.75;;
52740;SDS011;38634;52.138;9.912;2022-10-16T19:19:13;12.75;;;3.28;;
52740;SDS011;38634;52.138;9.912;2022-10-16T19:22:02;5.88;;;2.40;;
52740;SDS011;38634;52.138;9.912;2022-10-16T19:25:10;7.63;;;2.88;;
52740;SDS011;38634;52.138;9.912;2022-10-16T19:27:55;6.32;;;2.42;;
52740;SDS011;38634;52.138;9.912;2022-10-16T19:30:40;6.57;;;2.60;;
52740;SDS011;38634;52.138;9.912;2022-10-16T19:33:25;8.05;;;2.30;;
52740;SDS011;38634;52.138;9.912;2022-10-16T19:36:13;9.60;;;3.40;;
52740;SDS011;38634;52.138;9.912;2022-10-16T19:39:07;7.10;;;2.38;;
52740;SDS011;38634;52.138;9.912;2022-10-16T19:41:56;5.50;;;2.15;;
52740;SDS011;38634;52.138;9.912;2022-10-16T19:44:41;11.90;;;3.05;;
52740;SDS011;38634;52.138;9.912;2022-10-16T19:47:26;6.82;;;1.85;;
52740;SDS011;38634;52.138;9.912;2022-10-16T19:50:10;11.32;;;4.10;;
52740;SDS011;38634;52.138;9.912;2022-10-16T19:52:55;7.95;;;3.03;;
52740;SDS011;38634;52.138;9.912;2022-10-16T19:55:39;6.35;;;2.53;;
52740;SDS011;38634;52.138;9.912;2022-10-16T19:58:24;14.80;;;6.60;;
52740;SDS011;38634;52.138;9.912;2022-10-16T20:01:09;6.18;;;2.53;;
52740;SDS011;38634;52.138;9.912;2022-10-16T20:03:56;13.68;;;3.88;;
52740;SDS011;38634;52.138;9.912;2022-10-16T20:06:40;9.00;;;3.03;;
52740;SDS011;38634;52.138;9.912;2022-10-16T20:09:25;9.00;;;2.65;;
52740;SDS011;38634;52.138;9.912;2022-10-16T20:12:10;6.55;;;2.63;;
52740;SDS011;38634;52.138;9.912;2022-10-16T20:14:54;16.05;;;3.20;;
52740;SDS011;38634;52.138;9.912;2022-10-16T20:17:39;13.43;;;3.00;;
52740;SDS011;38634;52.138;9.912;2022-10-16T20:20:24;4.95;;;1.95;;
52740;SDS011;38634;52.138;9.912;2022-10-16T20:23:08;12.15;;;2.95;;
52740;SDS011;38634;52.138;9.912;2022-10-16T20:25:54;8.85;;;2.75;;
52740;SDS011;38634;52.138;9.912;2022-10-16T20:28:39;13.80;;;2.97;;
52740;SDS011;38634;52.138;9.912;2022-10-16T20:31:25;16.00;;;4.25;;
52740;SDS011;38634;52.138;9.912;2022-10-16T20:34:12;12.52;;;3.17;;
52740;SDS011;38634;52.138;9.912;2022-10-16T20:36:56;11.30;;;2.92;;
52740;SDS011;38634;52.138;9.912;2022-10-16T20:39:41;9.73;;;2.67;;
52740;SDS011;38634;52.138;9.912;2022-10-16T20:42:26;5.95;;;2.40;;
52740;SDS011;38634;52.138;9.912;2022-10-16T20:45:10;10.18;;;3.38;;
52740;SDS011;38634;52.138;9.912;2022-10-16T20:47:55;9.05;;;2.95;;
52740;SDS011;38634;52.138;9.912;2022-10-16T20:50:40;10.45;;;3.08;;
52740;SDS011;38634;52.138;9.912;2022-10-16T20:53:25;8.40;;;2.40;;
52740;SDS011;38634;52.138;9.912;2022-10-16T20:56:10;5.10;;;2.38;;
52740;SDS011;38634;52.138;9.912;2022-10-16T20:58:56;8.48;;;2.67;;
52740;SDS011;38634;52.138;9.912;2022-10-16T21:01:40;6.93;;;2.47;;
52740;SDS011;38634;52.138;9.912;2022-10-16T21:04:25;7.60;;;2.53;;
52740;SDS011;38634;52.138;9.912;2022-10-16T21:07:09;14.88;;;3.05;;
52740;SDS011;38634;52.138;9.912;2022-10-16T21:09:54;13.68;;;3.10;;
52740;SDS011;38634;52.138;9.912;2022-10-16T21:12:39;13.80;;;2.92;;
52740;SDS011;38634;52.138;9.912;2022-10-16T21:15:24;13.25;;;2.85;;
52740;SDS011;38634;52.138;9.912;2022-10-16T21:18:09;12.70;;;3.03;;
52740;SDS011;38634;52.138;9.912;2022-10-16T21:20:53;12.35;;;3.63;;
52740;SDS011;38634;52.138;9.912;2022-10-16T21:23:38;13.85;;;3.08;;
52740;SDS011;38634;52.138;9.912;2022-10-16T21:26:23;11.30;;;2.92;;
52740;SDS011;38634;52.138;9.912;2022-10-16T21:29:09;11.82;;;2.40;;
52740;SDS011;38634;52.138;9.912;2022-10-16T21:31:53;16.08;;;3.17;;
52740;SDS011;38634;52.138;9.912;2022-10-16T21:34:38;21.45;;;4.00;;
52740;SDS011;38634;52.138;9.912;2022-10-16T21:37:23;14.55;;;2.70;;
52740;SDS011;38634;52.138;9.912;2022-10-16T21:40:08;17.25;;;3.30;;
52740;SDS011;38634;52.138;9.912;2022-10-16T21:42:52;11.15;;;2.70;;
52740;SDS011;38634;52.138;9.912;2022-10-16T21:45:37;9.98;;;2.90;;
52740;SDS011;38634;52.138;9.912;2022-10-16T21:48:22;10.35;;;3.33;;
52740;SDS011;38634;52.138;9.912;2022-10-16T21:51:07;18.77;;;4.65;;
52740;SDS011;38634;52.138;9.912;2022-10-16T21:53:52;11.38;;;3.35;;
52740;SDS011;38634;52.138;9.912;2022-10-16T21:56:38;12.00;;;2.65;;
52740;SDS011;38634;52.138;9.912;2022-10-16T21:59:22;9.65;;;2.80;;
52740;SDS011;38634;52.138;9.912;2022-10-16T22:02:07;8.60;;;2.70;;
52740;SDS011;38634;52.138;9.912;2022-10-16T22:04:51;17.05;;;3.38;;
52740;SDS011;38634;52.138;9.912;2022-10-16T22:07:36;6.63;;;2.10;;
52740;SDS011;38634;52.138;9.912;2022-10-16T22:10:21;12.82;;;3.25;;
52740;SDS011;38634;52.138;9.912;2022-10-16T22:13:05;8.32;;;2.67;;
52740;SDS011;38634;52.138;9.912;2022-10-16T22:15:50;7.90;;;2.50;;
52740;SDS011;38634;52.138;9.912;2022-10-16T22:18:35;7.97;;;2.78;;
52740;SDS011;38634;52.138;9.912;2022-10-16T22:21:20;9.07;;;3.97;;
52740;SDS011;38634;52.138;9.912;2022-10-16T22:24:05;9.45;;;2.72;;
52740;SDS011;38634;52.138;9.912;2022-10-16T22:26:50;10.55;;;2.63;;
52740;SDS011;38634;52.138;9.912;2022-10-16T22:29:35;7.15;;;2.05;;
52740;SDS011;38634;52.138;9.912;2022-10-16T22:32:19;8.50;;;2.47;;
52740;SDS011;38634;52.138;9.912;2022-10-16T22:35:04;7.15;;;2.42;;
52740;SDS011;38634;52.138;9.912;2022-10-16T22:37:49;5.80;;;2.17;;
52740;SDS011;38634;52.138;9.912;2022-10-16T22:40:37;11.52;;;3.17;;
52740;SDS011;38634;52.138;9.912;2022-10-16T22:43:22;9.23;;;2.88;;
52740;SDS011;38634;52.138;9.912;2022-10-16T22:46:07;9.48;;;3.00;;
52740;SDS011;38634;52.138;9.912;2022-10-16T22:48:55;6.57;;;2.60;;
52740;SDS011;38634;52.138;9.912;2022-10-16T22:51:40;6.15;;;2.20;;
52740;SDS011;38634;52.138;9.912;2022-10-16T22:54:24;7.57;;;2.70;;
52740;SDS011;38634;52.138;9.912;2022-10-16T22:57:09;10.70;;;3.13;;
52740;SDS011;38634;52.138;9.912;2022-10-16T22:59:53;11.02;;;3.40;;
52740;SDS011;38634;52.138;9.912;2022-10-16T23:02:38;9.45;;;3.05;;
52740;SDS011;38634;52.138;9.912;2022-10-16T23:05:23;8.18;;;2.65;;
52740;SDS011;38634;52.138;9.912;2022-10-16T23:08:08;9.73;;;2.80;;
52740;SDS011;38634;52.138;9.912;2022-10-16T23:10:53;5.22;;;2.15;;
52740;SDS011;38634;52.138;9.912;2022-10-16T23:13:40;6.47;;;2.55;;
52740;SDS011;38634;52.138;9.912;2022-10-16T23:16:28;10.95;;;3.38;;
52740;SDS011;38634;52.138;9.912;2022-10-16T23:19:13;9.68;;;3.35;;
52740;SDS011;38634;52.138;9.912;2022-10-16T23:21:57;9.55;;;3.05;;
52740;SDS011;38634;52.138;9.912;2022-10-16T23:24:42;9.25;;;3.15;;
52740;SDS011;38634;52.138;9.912;2022-10-16T23:27:27;8.52;;;2.95;;
52740;SDS011;38634;52.138;9.912;2022-10-16T23:30:11;8.63;;;2.92;;
52740;SDS011;38634;52.138;9.912;2022-10-16T23:32:56;8.43;;;2.78;;
52740;SDS011;38634;52.138;9.912;2022-10-16T23:35:41;5.20;;;2.60;;
52740;SDS011;38634;52.138;9.912;2022-10-16T23:38:25;7.82;;;2.72;;
52740;SDS011;38634;52.138;9.912;2022-10-16T23:41:10;5.22;;;2.42;;
52740;SDS011;38634;52.138;9.912;2022-10-16T23:43:55;6.25;;;2.50;;
52740;SDS011;38634;52.138;9.912;2022-10-16T23:46:39;5.75;;;2.20;;
52740;SDS011;38634;52.138;9.912;2022-10-16T23:49:24;5.35;;;2.00;;
52740;SDS011;38634;52.138;9.912;2022-10-16T23:52:09;5.50;;;2.45;;
52740;SDS011;38634;52.138;9.912;2022-10-16T23:54:53;6.53;;;2.45;;
52740;SDS011;38634;52.138;9.912;2022-10-16T23:57:37;8.10;;;2.90;;
